Time;durP1;ratioP1;P1;durP2;ratioP2;P2;SDS_P1;SDS_P2;PMS_P1;PMS_P2;Temp;Humidity;BMP_temperature;BMP_pressure;BME280_temperature;BME280_humidity;BME280_pressure;Samples;Min_cycle;Max_cycle;Signal;HPM_P1;HPM_P2
2022/06/04 00:00:12;;;;;;;13.15;9.88;;;;;;;;;;5068572;28;20032;-52
2022/06/04 00:02:38;;;;;;;12.88;10.13;;;;;;;;;;5017624;28;20408;-53
2022/06/04 00:05:05;;;;;;;11.65;9.18;;;;;;;;;;5064264;28;20047;-53
2022/06/04 00:07:31;;;;;;;11.57;9.27;;;;;;;;;;5034464;28;20048;-51
2022/06/04 00:15:29;;;;;;;16.58;9.70;;;;;;;;;;5063525;28;20044;-53
2022/06/04 00:17:55;;;;;;;11.10;9.40;;;;;;;;;;5063080;28;20051;-53
2022/06/04 00:20:22;;;;;;;12.73;9.88;;;;;;;;;;5058287;28;20119;-52
2022/06/04 00:22:48;;;;;;;13.68;9.38;;;;;;;;;;5028107;28;20041;-53
2022/06/04 00:25:15;;;;;;;12.68;9.73;;;;;;;;;;5026357;28;20029;-54
2022/06/04 00:27:42;;;;;;;11.40;8.98;;;;;;;;;;5024522;28;20061;-52
2022/06/04 00:30:08;;;;;;;11.52;10.15;;;;;;;;;;5046691;28;20457;-54
2022/06/04 00:32:35;;;;;;;13.75;10.50;;;;;;;;;;5027327;28;21069;-54
2022/06/04 00:35:05;;;;;;;13.23;9.90;;;;;;;;;;5025226;28;20064;-52
2022/06/04 00:37:33;;;;;;;41.75;23.98;;;;;;;;;;5022772;28;20037;-51
2022/06/04 00:39:59;;;;;;;12.38;9.45;;;;;;;;;;5021646;28;20110;-51
2022/06/04 00:42:25;;;;;;;12.73;10.32;;;;;;;;;;5029476;28;20030;-52
2022/06/04 00:45:10;;;;;;;14.52;10.30;;;;;;;;;;5045403;28;20045;-51
2022/06/04 00:47:36;;;;;;;11.43;10.32;;;;;;;;;;5023962;28;20041;-52
2022/06/04 00:50:05;;;;;;;12.18;10.77;;;;;;;;;;5021006;28;20481;-53
2022/06/04 00:52:32;;;;;;;16.10;11.02;;;;;;;;;;5026538;28;20038;-54
2022/06/04 00:54:58;;;;;;;13.13;11.65;;;;;;;;;;5025732;28;20083;-53
2022/06/04 01:12:15;;;;;;;15.70;14.13;;;23.30;99.90;;;;;;5078229;27;20383;-51
2022/06/04 01:15:11;;;;;;;15.27;13.77;;;23.30;99.90;;;;;;5067808;28;20036;-52
2022/06/04 01:18:12;;;;;;;14.77;13.30;;;23.20;99.90;;;;;;5066194;28;20056;-52
2022/06/04 01:20:50;;;;;;;16.35;14.20;;;23.20;99.90;;;;;;5066968;28;20471;-53
2022/06/04 01:23:38;;;;;;;16.20;14.20;;;23.20;99.90;;;;;;5070048;28;20033;-53
2022/06/04 01:26:41;;;;;;;16.00;14.60;;;23.20;99.90;;;;;;5061662;28;20037;-52
2022/06/04 01:29:38;;;;;;;17.70;15.50;;;23.20;99.90;;;;;;5068211;28;20523;-54
2022/06/04 01:32:14;;;;;;;15.90;14.20;;;23.00;99.90;;;;;;5049991;28;20080;-53
2022/06/04 01:34:57;;;;;;;15.30;12.10;;;;;;;;;;5048230;28;20563;-51
2022/06/04 01:37:26;;;;;;;10.52;9.07;;;;;;;;;;5042330;28;20033;-53
2022/06/04 01:42:39;;;;;;;7.40;6.40;;;;;;;;;;5046378;28;20118;-53
2022/06/04 01:45:10;;;;;;;7.82;6.85;;;21.50;99.90;;;;;;5048006;28;20045;-54
2022/06/04 01:47:37;;;;;;;9.47;7.17;;;21.60;99.90;;;;;;5048458;28;20040;-51
2022/06/04 01:50:07;;;;;;;13.02;10.98;;;21.50;99.90;;;;;;5049053;28;21203;-52
2022/06/04 01:52:37;;;;;;;13.10;10.80;;;21.50;99.90;;;;;;4993991;28;20029;-52
2022/06/04 01:55:27;;;;;;;10.65;7.18;;;21.40;99.90;;;;;;5028088;28;20528;-51
2022/06/04 01:58:03;;;;;;;10.30;8.07;;;21.30;99.90;;;;;;5013952;28;20034;-52
2022/06/04 02:00:37;;;;;;;11.43;9.23;;;21.30;99.90;;;;;;5027582;28;20104;-53
2022/06/04 02:03:32;;;;;;;11.38;9.13;;;21.30;99.90;;;;;;5031551;28;20077;-53
2022/06/04 02:06:12;;;;;;;15.43;13.80;;;21.30;99.90;;;;;;4974178;28;20526;-53
2022/06/04 02:08:47;;;;;;;14.82;10.07;;;21.40;99.90;;;;;;4955038;28;20034;-52
2022/06/04 02:11:16;;;;;;;11.07;7.55;;;21.40;99.90;;;;;;4979955;28;20520;-52
2022/06/04 02:13:44;;;;;;;9.18;7.53;;;21.40;99.90;;;;;;4946769;29;20106;-52
2022/06/04 02:16:21;;;;;;;13.15;11.63;;;21.50;99.90;;;;;;4946582;29;20046;-52
2022/06/04 02:18:49;;;;;;;16.75;12.65;;;21.70;99.90;;;;;;4928887;29;20047;-51
2022/06/04 02:21:18;;;;;;;14.32;12.90;;;21.80;99.90;;;;;;4950027;29;20483;-54
2022/06/04 02:23:47;;;;;;;23.63;13.40;;;21.90;99.90;;;;;;4949615;29;20138;-53
2022/06/04 02:26:14;;;;;;;14.38;9.93;;;22.00;99.90;;;;;;4946333;29;20423;-54
2022/06/04 02:28:41;;;;;;;15.38;11.07;;;22.40;99.90;;;;;;4947752;29;20047;-51
2022/06/04 02:31:38;;;;;;;14.93;13.43;;;22.30;99.90;;;;;;4936962;29;20087;-52
2022/06/04 02:34:04;;;;;;;19.75;16.40;;;22.10;99.90;;;;;;4892295;29;20056;-54
2022/06/04 02:36:48;;;;;;;60.33;39.50;;;22.10;99.90;;;;;;4917923;29;21473;-52
2022/06/04 02:39:43;;;;;;;18.13;15.88;;;22.00;99.90;;;;;;4917469;29;20092;-53
2022/06/04 02:42:28;;;;;;;18.30;16.40;;;22.00;99.90;;;;;;4938190;28;20186;-54
2022/06/04 02:45:00;;;;;;;21.23;19.02;;;22.00;99.90;;;;;;4989859;28;20038;-52
2022/06/04 02:47:38;;;;;;;20.15;17.55;;;22.00;99.90;;;;;;4996022;28;20030;-54
2022/06/04 02:50:29;;;;;;;18.25;16.27;;;21.90;99.90;;;;;;4993323;28;20117;-51
2022/06/04 02:52:56;;;;;;;16.57;14.87;;;21.90;99.90;;;;;;4993129;28;20038;-53
2022/06/04 02:55:29;;;;;;;18.25;15.18;;;21.90;99.90;;;;;;4999832;28;20049;-53
2022/06/04 02:58:00;;;;;;;15.82;14.23;;;21.90;99.90;;;;;;4999632;28;20046;-51
2022/06/04 03:00:28;;;;;;;14.40;12.90;;;22.00;99.90;;;;;;4995055;28;20049;-54
2022/06/04 03:02:54;;;;;;;15.73;12.63;;;22.00;99.90;;;;;;4995832;28;20154;-51
2022/06/04 03:05:22;;;;;;;14.25;12.05;;;22.00;99.90;;;;;;4993408;28;20046;-54
2022/06/04 03:07:50;;;;;;;14.05;11.60;;;22.10;99.90;;;;;;5000289;28;20038;-54
2022/06/04 03:10:24;;;;;;;14.68;13.15;;;22.10;99.90;;;;;;5008379;28;20051;-51
2022/06/04 03:12:51;;;;;;;16.10;12.43;;;22.10;99.90;;;;;;5041957;28;20040;-53
2022/06/04 03:15:17;;;;;;;17.25;12.55;;;22.10;99.90;;;;;;5043239;28;20049;-52
2022/06/04 03:17:45;;;;;;;14.68;13.27;;;22.20;99.90;;;;;;5029085;28;20053;-51
2022/06/04 03:20:13;;;;;;;18.35;13.38;;;22.30;99.90;;;;;;5020847;28;20120;-52
2022/06/04 03:22:39;;;;;;;14.00;12.50;;;22.30;99.90;;;;;;5040984;28;20040;-51
2022/06/04 03:25:06;;;;;;;16.55;13.38;;;22.30;99.90;;;;;;5056439;28;20045;-53
2022/06/04 03:27:32;;;;;;;15.68;13.02;;;22.40;99.90;;;;;;5042127;28;20067;-52
2022/06/04 03:29:58;;;;;;;15.00;13.48;;;22.30;99.90;;;;;;5038095;28;21041;-52
2022/06/04 03:32:24;;;;;;;15.32;13.85;;;22.20;99.90;;;;;;5042811;28;20463;-53
2022/06/04 03:34:50;;;;;;;15.20;13.43;;;22.20;99.90;;;;;;5017061;28;20037;-52
2022/06/04 03:37:16;;;;;;;14.90;13.18;;;22.10;99.90;;;;;;5042472;28;20041;-54
2022/06/04 03:39:42;;;;;;;17.38;13.48;;;22.20;99.90;;;;;;5044384;28;20068;-53
2022/06/04 03:42:08;;;;;;;15.07;11.63;;;22.30;99.90;;;;;;5005455;28;20061;-54
2022/06/04 03:44:34;;;;;;;13.68;12.10;;;22.40;99.90;;;;;;5066763;28;20040;-51
2022/06/04 03:47:00;;;;;;;14.32;12.82;;;22.60;99.90;;;;;;5050284;28;20037;-53
2022/06/04 03:49:26;;;;;;;13.02;11.02;;;22.60;99.90;;;;;;5053790;28;20036;-54
2022/06/04 03:51:52;;;;;;;13.70;10.75;;;22.60;99.90;;;;;;5056928;28;20029;-54
2022/06/04 03:54:52;;;;;;;12.55;10.52;;;22.60;99.90;;;;;;5072226;28;20459;-51
2022/06/04 03:59:51;;;;;;;15.82;11.10;;;22.50;99.90;;;;;;5062801;28;20149;-54
2022/06/04 04:02:17;;;;;;;14.48;11.30;;;22.60;99.90;;;;;;5055774;28;20157;-53
2022/06/04 04:04:43;;;;;;;16.15;10.77;;;22.50;99.90;;;;;;5090680;28;20147;-53
2022/06/04 04:07:08;;;;;;;15.45;11.10;;;22.50;99.90;;;;;;5090959;28;20046;-52
2022/06/04 04:09:34;;;;;;;12.93;11.32;;;22.50;99.90;;;;;;5098671;28;20153;-52
2022/06/04 04:12:00;;;;;;;14.55;11.68;;;22.60;99.90;;;;;;5090517;28;20044;-52
2022/06/04 04:14:25;;;;;;;18.83;11.43;;;22.80;99.90;;;;;;5092416;28;20039;-54
2022/06/04 04:16:51;;;;;;;14.85;12.43;;;22.80;99.90;;;;;;5095659;28;20081;-53
2022/06/04 04:19:17;;;;;;;19.33;12.85;;;22.90;99.90;;;;;;5057350;28;20143;-53
2022/06/04 04:21:43;;;;;;;17.67;12.50;;;23.00;99.90;;;;;;5092542;28;20127;-52
2022/06/04 04:24:08;;;;;;;14.10;11.77;;;23.00;99.90;;;;;;5068277;28;20032;-53
2022/06/04 04:26:34;;;;;;;17.15;12.07;;;23.10;99.90;;;;;;5091208;28;20028;-53
2022/06/04 04:29:00;;;;;;;16.17;11.52;;;23.20;99.90;;;;;;5051312;28;20032;-53
2022/06/04 04:31:26;;;;;;;16.27;10.77;;;23.20;99.90;;;;;;5052593;28;20503;-53
2022/06/04 04:33:52;;;;;;;12.93;10.45;;;23.30;99.90;;;;;;5048909;28;20114;-51
2022/06/04 04:36:18;;;;;;;15.82;11.35;;;23.40;99.90;;;;;;5051591;28;20068;-53
2022/06/04 04:38:44;;;;;;;14.68;9.95;;;23.50;99.90;;;;;;5056623;28;20032;-53
2022/06/04 04:41:12;;;;;;;12.75;10.38;;;23.50;99.90;;;;;;5071804;28;20045;-54
2022/06/04 04:43:39;;;;;;;12.90;11.45;;;23.50;99.90;;;;;;5052180;28;20033;-51
2022/06/04 04:46:08;;;;;;;12.90;11.13;;;23.60;99.90;;;;;;5046388;28;20060;-52
2022/06/04 04:48:33;;;;;;;13.45;11.40;;;23.50;99.90;;;;;;5044614;28;20025;-53
2022/06/04 04:50:59;;;;;;;14.25;10.95;;;23.60;99.90;;;;;;5048220;28;20025;-51
2022/06/04 04:53:27;;;;;;;16.52;12.20;;;23.60;99.90;;;;;;5062587;28;20048;-53
2022/06/04 04:55:53;;;;;;;12.30;10.40;;;23.60;99.90;;;;;;5050503;28;20064;-52
2022/06/04 04:58:18;;;;;;;11.10;9.95;;;23.70;99.90;;;;;;5056989;28;20055;-54
2022/06/04 05:14:53;;;;;;;11.45;8.18;;;;;;;;;;5106562;27;20398;-52
2022/06/04 05:17:19;;;;;;;9.98;8.13;;;;;;;;;;5112050;27;20101;-51
2022/06/04 05:19:45;;;;;;;10.32;9.02;;;;;;;;;;5104601;28;20024;-51
2022/06/04 05:22:11;;;;;;;13.38;9.63;;;;;;;;;;5110610;28;20020;-51
2022/06/04 05:24:38;;;;;;;12.05;8.68;;;;;;;;;;5104355;28;20032;-51
2022/06/04 05:27:08;;;;;;;12.88;8.93;;;;;;;;;;5093862;28;20046;-52
2022/06/04 05:29:36;;;;;;;9.35;8.35;;;;;;;;;;5100723;28;20114;-52
2022/06/04 05:32:02;;;;;;;9.68;7.40;;;;;;;;;;5100955;28;20501;-52
2022/06/04 05:34:29;;;;;;;10.32;7.93;;;;;;;;;;5065551;28;20498;-52
2022/06/04 05:36:55;;;;;;;10.95;7.10;;;;;;;;;;5100300;28;20089;-51
2022/06/04 05:39:22;;;;;;;10.40;7.93;;;;;;;;;;5099867;28;20016;-52
2022/06/04 05:41:49;;;;;;;10.93;7.32;;;;;;;;;;5101039;28;20024;-51
2022/06/04 05:44:15;;;;;;;9.05;6.38;;;;;;;;;;5081208;28;20052;-52
2022/06/04 05:46:42;;;;;;;10.05;8.13;;;;;;;;;;5056451;28;20074;-48
2022/06/04 05:49:10;;;;;;;10.00;6.80;;;;;;;;;;5099622;28;20471;-51
2022/06/04 05:51:37;;;;;;;10.35;7.57;;;;;;;;;;5104575;28;20024;-52
2022/06/04 05:54:03;;;;;;;8.23;7.03;;;;;;;;;;5082804;28;20033;-51
2022/06/04 05:56:30;;;;;;;14.27;7.97;;;;;;;;;;5079722;28;20059;-51
2022/06/04 05:58:58;;;;;;;9.85;7.07;;;;;;;;;;5090213;28;20058;-51
2022/06/04 06:01:26;;;;;;;8.77;6.25;;;;;;;;;;5081137;28;20142;-52
2022/06/04 06:03:53;;;;;;;10.70;6.47;;;;;;;;;;5099329;28;20047;-52
2022/06/04 06:06:23;;;;;;;11.00;7.07;;;;;;;;;;5090436;28;20169;-51
2022/06/04 06:08:49;;;;;;;9.57;6.32;;;;;;;;;;5101460;28;20047;-51
2022/06/04 06:11:17;;;;;;;10.68;6.85;;;;;;;;;;5096434;28;20075;-52
2022/06/04 06:13:44;;;;;;;8.57;6.20;;;;;;;;;;5089265;28;20491;-52
2022/06/04 06:16:11;;;;;;;13.80;7.07;;;;;;;;;;5062321;28;20491;-53
2022/06/04 06:18:38;;;;;;;7.75;6.47;;;;;;;;;;5087029;28;20546;-51
2022/06/04 06:21:13;;;;;;;9.20;6.40;;;25.60;99.90;;;;;;5087131;28;20036;-51
2022/06/04 06:23:39;;;;;;;8.77;7.40;;;;;;;;;;5075292;28;20430;-54
2022/06/04 06:26:07;;;;;;;10.02;6.90;;;;;;;;;;5086368;28;20415;-52
2022/06/04 06:28:37;;;;;;;11.88;6.68;;;25.90;99.90;;;;;;5087424;28;20529;-51
2022/06/04 06:31:04;;;;;;;12.23;6.97;;;26.10;99.90;;;;;;5088538;28;20044;-52
2022/06/04 06:33:30;;;;;;;11.65;7.88;;;26.10;99.90;;;;;;5047850;28;20041;-52
2022/06/04 06:36:01;;;;;;;13.18;7.28;;;26.10;99.90;;;;;;5050598;28;20037;-52
2022/06/04 06:38:27;;;;;;;9.23;6.20;;;26.30;99.90;;;;;;5047094;28;20048;-52
2022/06/04 06:40:55;;;;;;;11.13;6.07;;;26.30;99.90;;;;;;5035020;28;20036;-52
2022/06/04 06:43:22;;;;;;;8.73;5.55;;;26.40;99.90;;;;;;5050275;28;20053;-52
2022/06/04 06:45:48;;;;;;;10.60;7.25;;;26.10;99.90;;;;;;5050549;28;20048;-52
2022/06/04 06:48:14;;;;;;;9.65;6.75;;;26.40;99.90;;;;;;5049841;28;20395;-52
2022/06/04 06:50:42;;;;;;;11.65;6.75;;;;;;;;;;5050414;28;20538;-52
2022/06/04 06:53:08;;;;;;;8.13;5.82;;;26.80;99.90;;;;;;5051967;28;20037;-52
2022/06/04 06:55:34;;;;;;;9.10;6.75;;;26.80;99.90;;;;;;5046892;28;20407;-52
2022/06/04 06:58:00;;;;;;;10.05;7.38;;;;;;;;;;5032291;28;20439;-52
2022/06/04 07:00:26;;;;;;;10.32;6.18;;;27.00;99.90;;;;;;5050511;28;21350;-51
2022/06/04 07:02:52;;;;;;;7.88;5.97;;;27.50;99.90;;;;;;5051559;28;20091;-54
2022/06/04 07:05:18;;;;;;;8.63;6.57;;;27.70;99.90;;;;;;5055489;28;20040;-51
2022/06/04 07:07:43;;;;;;;12.25;6.13;;;28.10;99.90;;;;;;5092820;28;20073;-52
2022/06/04 07:10:10;;;;;;;11.57;6.32;;;27.80;99.90;;;;;;5086769;28;20081;-55
2022/06/04 07:12:36;;;;;;;13.80;5.82;;;27.50;99.90;;;;;;5083034;28;20028;-52
2022/06/04 07:15:02;;;;;;;11.05;5.50;;;27.60;99.90;;;;;;5086401;28;20043;-50
2022/06/04 07:17:28;;;;;;;16.95;7.25;;;28.00;99.90;;;;;;5066639;28;20379;-53
2022/06/04 07:19:54;;;;;;;10.88;6.57;;;28.20;99.90;;;;;;5083792;28;20028;-53
2022/06/04 07:22:20;;;;;;;8.00;5.25;;;28.20;99.90;;;;;;5084439;28;20036;-58
2022/06/04 07:24:46;;;;;;;7.38;5.57;;;28.10;99.90;;;;;;5054543;28;20550;-57
2022/06/04 07:27:12;;;;;;;10.20;6.20;;;;;;;;;;5090365;28;20031;-53
2022/06/04 07:29:38;;;;;;;10.52;6.10;;;28.60;99.90;;;;;;5083649;28;20073;-50
2022/06/04 07:32:05;;;;;;;12.52;6.32;;;;;;;;;;5083865;28;20032;-49
2022/06/04 07:34:31;;;;;;;9.30;5.85;;;;;;;;;;5085409;28;20051;-52
2022/06/04 07:36:58;;;;;;;11.95;6.97;;;;;;;;;;5084176;28;20086;-51
2022/06/04 07:39:24;;;;;;;11.00;6.47;;;;;;;;;;5082970;28;20444;-53
2022/06/04 07:41:52;;;;;;;9.00;5.05;;;;;;;;;;5080816;28;20054;-49
2022/06/04 07:44:18;;;;;;;9.48;5.43;;;;;;;;;;5086548;28;20467;-51
2022/06/04 07:46:45;;;;;;;11.45;6.13;;;;;;;;;;5091324;28;20024;-56
2022/06/04 07:49:12;;;;;;;9.98;6.85;;;;;;;;;;5091081;28;20082;-55
2022/06/04 07:51:39;;;;;;;9.82;6.18;;;;;;;;;;5060301;28;20040;-55
2022/06/04 07:54:09;;;;;;;10.60;5.70;;;;;;;;;;5084041;28;20044;-56
2022/06/04 07:56:36;;;;;;;10.27;6.25;;;;;;;;;;5060688;28;20484;-57
2022/06/04 07:59:03;;;;;;;10.73;6.50;;;;;;;;;;5091415;28;20426;-51
2022/06/04 08:01:29;;;;;;;9.38;5.90;;;;;;;;;;5092957;28;20023;-51
2022/06/04 08:03:55;;;;;;;10.70;6.05;;;29.80;99.90;;;;;;5055219;28;20048;-62
2022/06/04 08:06:22;;;;;;;9.98;6.47;;;29.80;99.90;;;;;;5090254;28;20437;-52
2022/06/04 08:08:50;;;;;;;12.18;6.75;;;;;;;;;;5084209;28;20051;-51
2022/06/04 08:11:32;;;;;;;10.38;6.03;;;;;;;;;;5086559;28;20027;-50
2022/06/04 08:14:04;;;;;;;9.65;6.53;;;30.40;99.90;;;;;;5071935;28;20068;-51
2022/06/04 08:16:30;;;;;;;9.70;5.47;;;;;;;;;;5091035;28;20024;-55
2022/06/04 08:18:58;;;;;;;9.77;6.82;;;;;;;;;;5089924;28;20028;-51
2022/06/04 08:21:24;;;;;;;8.65;5.38;;;;;;;;;;5090509;28;20392;-53
2022/06/04 08:23:50;;;;;;;10.02;6.25;;;;;;;;;;5083146;28;20081;-55
2022/06/04 08:26:17;;;;;;;12.25;5.60;;;;;;;;;;5103011;28;20047;-52
2022/06/04 08:28:43;;;;;;;8.90;5.25;;;;;;;;;;5040947;28;20047;-53
2022/06/04 08:31:13;;;;;;;7.88;5.60;;;;;;;;;;5080454;28;20384;-51
2022/06/04 08:33:40;;;;;;;8.68;5.78;;;;;;;;;;5062921;28;20047;-52
2022/06/04 08:36:07;;;;;;;9.55;5.80;;;;;;;;;;5048047;28;20047;-54
2022/06/04 08:38:33;;;;;;;10.82;6.90;;;;;;;;;;5101862;28;20055;-52
2022/06/04 08:41:01;;;;;;;12.75;7.10;;;;;;;;;;5089977;28;20455;-53
2022/06/04 08:43:39;;;;;;;10.48;6.63;;;;;;;;;;5088972;28;20036;-53
2022/06/04 08:46:12;;;;;;;9.63;6.43;;;;;;;;;;5090357;28;20162;-53
2022/06/04 08:48:38;;;;;;;11.05;7.50;;;;;;;;;;5091381;28;20081;-52
2022/06/04 08:51:12;;;;;;;11.93;6.47;;;;;;;;;;5088954;28;20039;-52
2022/06/04 08:53:39;;;;;;;8.05;5.90;;;31.20;99.90;;;;;;5084352;28;20027;-54
2022/06/04 08:59:01;;;;;;;12.68;7.32;;;31.50;99.90;;;;;;5079528;28;20173;-54
2022/06/04 09:01:35;;;;;;;9.98;6.68;;;31.60;99.90;;;;;;5086318;28;20029;-53
2022/06/04 09:04:35;;;;;;;10.40;7.18;;;31.60;99.90;;;;;;5086637;28;20039;-53
2022/06/04 09:07:47;;;;;;;13.50;7.65;;;31.40;99.90;;;;;;5082308;28;20025;-53
2022/06/04 09:10:22;;;;;;;10.45;8.05;;;31.70;99.90;;;;;;5050059;28;20068;-53
2022/06/04 09:13:12;;;;;;;9.50;7.85;;;31.50;99.90;;;;;;5043513;28;20122;-53
2022/06/04 09:15:45;;;;;;;10.68;7.38;;;31.40;99.90;;;;;;5036854;28;20041;-53
2022/06/04 09:18:16;;;;;;;9.13;7.55;;;31.60;99.90;;;;;;5049053;28;20029;-53
2022/06/04 09:20:54;;;;;;;12.95;7.45;;;31.60;99.90;;;;;;5022845;28;20495;-54
2022/06/04 09:23:29;;;;;;;10.68;7.10;;;31.60;99.90;;;;;;5050294;28;20103;-55
2022/06/04 09:26:13;;;;;;;9.93;7.55;;;31.70;99.90;;;;;;5050019;28;20025;-53
2022/06/04 09:28:57;;;;;;;11.85;7.90;;;31.50;99.90;;;;;;5049964;28;20033;-53
2022/06/04 09:31:57;;;;;;;9.45;7.38;;;31.60;99.90;;;;;;5050065;28;20029;-53
2022/06/04 09:34:35;;;;;;;17.83;8.00;;;31.70;99.90;;;;;;5046671;28;20041;-52
2022/06/04 09:37:02;;;;;;;9.18;5.95;;;31.70;99.90;;;;;;5047766;28;20435;-61
2022/06/04 09:39:30;;;;;;;11.45;7.03;;;31.70;99.90;;;;;;5043064;28;20033;-61
2022/06/04 09:42:11;;;;;;;10.90;6.97;;;31.90;99.90;;;;;;5014890;28;20061;-48
2022/06/04 09:44:57;;;;;;;9.80;6.73;;;31.80;99.90;;;;;;5043246;28;20123;-59
2022/06/04 09:47:40;;;;;;;9.70;6.03;;;31.90;99.90;;;;;;5087727;28;20043;-49
2022/06/04 09:50:24;;;;;;;10.38;6.72;;;32.20;99.90;;;;;;5091581;28;20106;-49
2022/06/04 09:53:12;;;;;;;9.85;6.50;;;32.20;99.90;;;;;;5089119;28;20118;-49
2022/06/04 09:55:45;;;;;;;11.10;5.60;;;32.20;99.90;;;;;;5089502;28;20379;-49
2022/06/04 09:58:27;;;;;;;10.85;5.40;;;32.30;99.90;;;;;;5096539;28;20023;-52
2022/06/04 10:01:21;;;;;;;8.95;5.72;;;32.30;99.90;;;;;;5096149;28;20047;-55
2022/06/04 10:04:13;;;;;;;10.23;6.20;;;32.30;99.90;;;;;;5090091;28;20499;-53
2022/06/04 10:06:39;;;;;;;9.25;5.07;;;32.40;99.90;;;;;;5092053;28;20024;-51
2022/06/04 10:12:03;;;;;;;8.57;5.85;;;32.40;99.90;;;;;;5095093;28;20039;-51
2022/06/04 10:14:33;;;;;;;14.25;5.68;;;32.50;99.90;;;;;;5089100;28;20123;-55
2022/06/04 10:17:00;;;;;;;10.07;5.70;;;32.60;99.90;;;;;;5086192;28;20060;-53
2022/06/04 10:19:27;;;;;;;8.00;4.57;;;32.50;99.90;;;;;;5089951;28;20028;-50
2022/06/04 10:22:13;;;;;;;8.48;4.53;;;32.40;99.90;;;;;;5089585;28;20404;-53
2022/06/04 10:24:53;;;;;;;10.73;4.50;;;32.50;99.90;;;;;;5085252;28;20373;-58
2022/06/04 10:27:41;;;;;;;7.22;4.30;;;32.60;99.90;;;;;;5085398;28;20448;-56
2022/06/04 10:30:12;;;;;;;8.57;4.65;;;32.50;99.90;;;;;;5084078;28;20383;-59
2022/06/04 10:33:00;;;;;;;6.72;5.18;;;32.50;99.90;;;;;;5081513;28;20028;-51
2022/06/04 10:36:17;;;;;;;9.90;4.85;;;32.50;99.90;;;;;;5086762;28;20032;-52
2022/06/04 10:38:43;;;;;;;10.30;5.35;;;;;;;;;;5072808;28;20040;-52
2022/06/04 10:41:13;;;;;;;11.82;6.00;;;;;;;;;;5072873;28;20038;-51
2022/06/04 10:44:11;;;;;;;6.47;5.00;;;33.10;99.90;;;;;;5072456;28;20047;-52
2022/06/04 10:46:39;;;;;;;9.57;6.30;;;32.70;99.90;;;;;;5073069;28;20079;-51
2022/06/04 10:49:08;;;;;;;10.50;4.63;;;32.80;99.90;;;;;;5072654;28;20127;-53
2022/06/04 10:51:37;;;;;;;6.55;5.13;;;32.70;99.90;;;;;;5065648;28;20189;-54
2022/06/04 10:54:36;;;;;;;9.98;4.28;;;32.80;99.90;;;;;;5059883;28;20440;-55
2022/06/04 10:57:24;;;;;;;10.80;5.28;;;32.50;99.90;;;;;;5019012;28;20392;-55
2022/06/04 10:59:59;;;;;;;6.05;5.13;;;;;;;;;;5052401;28;20094;-57
2022/06/04 11:02:50;;;;;;;8.43;5.65;;;;;;;;;;5052360;28;20539;-59
2022/06/04 11:05:19;;;;;;;10.15;4.88;;;;;;;;;;5051654;28;20035;-56
2022/06/04 11:07:53;;;;;;;6.95;4.80;;;;;;;;;;5051951;28;20047;-57
2022/06/04 11:10:30;;;;;;;7.75;5.60;;;33.70;99.90;;;;;;5048735;28;20048;-60
2022/06/04 11:13:08;;;;;;;10.05;5.47;;;;;;;;;;5045702;28;20120;-56
2022/06/04 11:16:03;;;;;;;9.20;5.63;;;33.70;99.90;;;;;;5071129;28;20036;-58
2022/06/04 11:18:40;;;;;;;8.05;4.65;;;33.80;99.90;;;;;;5072508;28;20029;-59
2022/06/04 11:21:31;;;;;;;5.22;3.60;;;33.70;99.90;;;;;;5072053;28;20028;-57
2022/06/04 11:24:09;;;;;;;9.63;4.50;;;33.50;99.90;;;;;;5070822;28;20110;-53
2022/06/04 11:26:50;;;;;;;11.13;4.80;;;33.70;99.90;;;;;;5071837;28;20375;-54
2022/06/04 11:29:16;;;;;;;12.80;5.00;;;33.80;99.90;;;;;;5083355;28;20093;-57
2022/06/04 11:31:54;;;;;;;8.27;4.20;;;33.60;99.90;;;;;;5064531;28;20035;-56
2022/06/04 11:35:04;;;;;;;7.45;3.88;;;33.90;99.90;;;;;;5082543;28;20027;-59
2022/06/04 11:37:45;;;;;;;10.77;5.30;;;33.70;99.90;;;;;;5063149;28;20028;-55
2022/06/04 11:40:30;;;;;;;8.55;5.55;;;33.90;99.90;;;;;;5085277;28;20431;-58
2022/06/04 11:43:05;;;;;;;7.32;4.57;;;34.10;99.90;;;;;;5085610;28;20047;-57
2022/06/04 11:45:49;;;;;;;8.65;4.80;;;34.40;99.90;;;;;;5085343;28;20055;-54
2022/06/04 11:48:27;;;;;;;23.48;3.92;;;34.30;99.90;;;;;;5085433;28;20039;-59
2022/06/04 11:50:53;;;;;;;7.60;3.20;;;34.10;99.40;;;;;;5076124;28;20115;-59
2022/06/04 11:53:50;;;;;;;7.05;3.75;;;34.30;98.60;;;;;;5084286;28;20115;-54
2022/06/04 11:56:51;;;;;;;5.43;3.10;;;34.40;97.90;;;;;;5081837;28;20149;-58
2022/06/04 11:59:37;;;;;;;8.05;4.03;;;34.10;97.90;;;;;;5082827;28;20387;-55
2022/06/04 12:02:17;;;;;;;7.63;3.22;;;34.50;98.10;;;;;;5084642;28;20028;-56
2022/06/04 12:04:59;;;;;;;5.97;3.30;;;34.40;97.60;;;;;;5087937;28;20074;-59
2022/06/04 12:07:37;;;;;;;6.47;3.13;;;34.60;96.70;;;;;;5081721;28;20035;-58
2022/06/04 12:10:20;;;;;;;7.47;2.70;;;34.50;96.60;;;;;;5086162;28;20426;-54
2022/06/04 12:12:56;;;;;;;5.57;3.03;;;34.10;94.90;;;;;;5083750;28;20052;-59
2022/06/04 12:15:50;;;;;;;8.32;3.00;;;34.40;95.20;;;;;;5091015;28;20028;-57
2022/06/04 12:18:57;;;;;;;6.03;3.38;;;34.40;94.70;;;;;;5085043;28;20486;-53
2022/06/04 12:24:27;;;;;;;8.20;4.05;;;34.70;95.60;;;;;;5060507;28;20055;-55
2022/06/04 12:27:06;;;;;;;8.00;2.15;;;34.70;95.20;;;;;;4996919;28;20118;-57
2022/06/04 12:29:34;;;;;;;8.45;3.22;;;34.30;94.50;;;;;;5039978;28;20037;-54
2022/06/04 12:32:18;;;;;;;8.70;3.65;;;34.40;94.60;;;;;;5062654;28;20029;-50
2022/06/04 12:34:44;;;;;;;9.05;3.47;;;34.30;94.60;;;;;;5056596;28;20029;-49
2022/06/04 12:37:27;;;;;;;6.43;3.40;;;34.30;94.70;;;;;;4991843;28;20122;-66
2022/06/04 12:39:53;;;;;;;5.05;2.97;;;34.20;95.10;;;;;;5064735;28;20043;-57
2022/06/04 12:42:19;;;;;;;7.40;2.90;;;34.40;94.60;;;;;;5061407;28;20045;-59
2022/06/04 12:45:03;;;;;;;8.43;4.22;;;34.10;94.40;;;;;;5067032;28;20039;-52
2022/06/04 12:47:34;;;;;;;6.30;3.20;;;34.60;95.00;;;;;;5002523;28;20042;-54
2022/06/04 12:50:18;;;;;;;6.60;4.38;;;34.80;94.90;;;;;;4977914;28;20151;-52
2022/06/04 12:53:07;;;;;;;7.32;3.53;;;35.00;95.30;;;;;;4973914;28;20507;-54
2022/06/04 12:55:44;;;;;;;8.27;4.18;;;34.70;95.00;;;;;;5003307;28;20701;-57
2022/06/04 12:58:31;;;;;;;6.80;3.15;;;34.80;95.00;;;;;;5021610;28;20060;-53
2022/06/04 13:01:23;;;;;;;4.72;3.53;;;34.80;94.80;;;;;;5022266;28;20113;-55
2022/06/04 13:04:02;;;;;;;6.43;2.90;;;35.00;94.90;;;;;;5010640;28;20085;-55
2022/06/04 13:06:48;;;;;;;8.48;3.08;;;34.80;93.60;;;;;;5008169;28;20038;-53
2022/06/04 13:09:20;;;;;;;4.93;3.25;;;34.60;93.80;;;;;;5008806;28;20049;-56
2022/06/04 13:11:49;;;;;;;7.28;3.50;;;34.60;94.50;;;;;;5013088;28;20524;-49
2022/06/04 13:14:23;;;;;;;8.15;3.35;;;34.60;94.30;;;;;;5013667;28;20046;-50
2022/06/04 13:16:58;;;;;;;9.48;3.53;;;34.90;94.70;;;;;;5014860;28;20026;-52
2022/06/04 13:19:50;;;;;;;8.90;3.65;;;34.90;94.20;;;;;;5013174;28;20033;-52
2022/06/04 13:22:51;;;;;;;8.10;4.03;;;34.80;94.60;;;;;;5035565;28;20099;-53
2022/06/04 13:25:23;;;;;;;7.60;3.43;;;34.80;94.60;;;;;;5041655;28;20052;-49
2022/06/04 13:27:55;;;;;;;7.50;3.45;;;34.80;93.80;;;;;;5031550;28;20057;-51
2022/06/04 13:30:22;;;;;;;;;;;34.80;94.50;;;;;;5048971;28;20052;-52
2022/06/04 13:32:49;;;;;;;6.97;3.50;;;34.80;94.00;;;;;;5033594;28;19909;-46
2022/06/04 13:35:18;;;;;;;6.57;2.50;;;35.00;94.10;;;;;;5053044;28;20431;-50
2022/06/04 13:37:45;;;;;;;7.57;2.80;;;35.00;93.70;;;;;;5009318;28;20056;-51
2022/06/04 13:40:24;;;;;;;6.45;3.05;;;35.00;92.50;;;;;;5036906;28;20047;-52
2022/06/04 13:42:54;;;;;;;11.60;3.00;;;35.10;92.90;;;;;;5091596;28;20081;-54
2022/06/04 13:45:29;;;;;;;6.90;3.20;;;35.30;93.10;;;;;;5072135;28;20036;-52
2022/06/04 13:47:58;;;;;;;6.50;2.30;;;35.00;92.10;;;;;;5048680;28;20063;-49
2022/06/04 13:50:27;;;;;;;7.07;2.70;;;34.90;92.40;;;;;;5036488;28;20166;-50
2022/06/04 13:52:55;;;;;;;6.47;2.75;;;34.90;91.80;;;;;;5045324;28;20477;-51
2022/06/04 13:55:36;;;;;;;7.88;3.25;;;34.90;92.50;;;;;;5042191;28;20041;-49
2022/06/04 13:58:07;;;;;;;8.38;3.13;;;34.90;92.80;;;;;;5042979;28;20029;-54
2022/06/04 14:00:34;;;;;;;9.07;2.63;;;34.70;92.60;;;;;;5050713;28;20037;-53
2022/06/04 14:03:11;;;;;;;4.32;2.53;;;34.80;92.70;;;;;;5027797;28;20029;-67
2022/06/04 14:05:51;;;;;;;4.00;2.10;;;34.80;92.00;;;;;;5052906;28;20049;-50
2022/06/04 14:08:25;;;;;;;6.93;2.15;;;34.80;91.60;;;;;;5053251;28;20048;-50
2022/06/04 14:11:26;;;;;;;7.60;2.38;;;34.80;91.70;;;;;;5050533;28;20040;-51
2022/06/04 14:14:16;;;;;;;7.40;2.92;;;34.70;91.50;;;;;;5007341;28;20136;-51
2022/06/04 14:17:03;;;;;;;6.03;2.47;;;34.50;91.60;;;;;;5017761;28;20041;-51
2022/06/04 14:19:41;;;;;;;14.73;4.57;;;34.50;92.10;;;;;;5028721;28;20585;-51
2022/06/04 14:22:25;;;;;;;8.55;2.58;;;34.60;91.20;;;;;;5023484;28;20038;-51
2022/06/04 14:25:23;;;;;;;7.95;2.33;;;34.50;91.00;;;;;;5030983;28;20495;-51
2022/06/04 14:28:00;;;;;;;9.88;2.53;;;34.50;91.60;;;;;;4955023;29;20051;-51